createdAt,value
2022-09-28T00:01:36.891Z,0.20
2022-09-28T00:04:04.629Z,0.10
2022-09-28T00:06:32.060Z,0.10
2022-09-28T00:09:01.387Z,0.20
2022-09-28T00:11:29.191Z,0.30
2022-09-28T00:14:01.959Z,0.35
2022-09-28T00:16:35.582Z,0.20
2022-09-28T00:19:03.987Z,0.10
2022-09-28T00:21:34.395Z,0.22
2022-09-28T00:24:12.714Z,0.20
2022-09-28T00:26:48.939Z,0.13
2022-09-28T00:29:23.261Z,0.10
2022-09-28T00:31:59.829Z,0.20
2022-09-28T00:34:27.594Z,0.30
2022-09-28T00:36:54.938Z,0.10
2022-09-28T00:39:22.439Z,0.20
2022-09-28T00:41:50.372Z,0.35
2022-09-28T00:44:50.656Z,0.10
2022-09-28T00:47:57.265Z,0.10
2022-09-28T00:50:32.119Z,0.28
2022-09-28T00:53:13.025Z,0.10
2022-09-28T00:55:48.220Z,0.10
2022-09-28T00:58:21.179Z,0.20
2022-09-28T01:03:17.304Z,0.13
2022-09-28T01:05:46.953Z,0.20
2022-09-28T01:08:15.818Z,0.10
2022-09-28T01:10:43.777Z,0.10
2022-09-28T01:13:14.082Z,0.10
2022-09-28T01:16:19.373Z,0.40
2022-09-28T01:19:26.299Z,0.15
2022-09-28T01:22:23.765Z,0.20
2022-09-28T01:25:27.984Z,0.08
2022-09-28T01:28:04.226Z,0.20
2022-09-28T01:30:43.610Z,0.20
2022-09-28T01:33:14.376Z,0.00
2022-09-28T01:35:55.434Z,0.10
2022-09-28T01:38:30.111Z,0.13
2022-09-28T01:40:59.487Z,0.20
2022-09-28T01:43:29.080Z,0.10
2022-09-28T01:46:06.957Z,0.15
2022-09-28T01:48:59.273Z,0.00
2022-09-28T01:52:10.463Z,0.15
2022-09-28T01:54:44.671Z,0.20
2022-09-28T01:57:24.639Z,0.15
2022-09-28T02:00:10.613Z,1.17
2022-09-28T02:02:53.959Z,0.10
2022-09-28T02:05:34.279Z,0.10
2022-09-28T02:08:17.162Z,0.45
2022-09-28T02:10:57.755Z,0.90
2022-09-28T02:13:33.054Z,1.52
2022-09-28T02:16:14.810Z,1.45
2022-09-28T02:18:42.927Z,1.35
2022-09-28T02:21:25.701Z,1.15
2022-09-28T02:23:58.848Z,1.02
2022-09-28T02:26:32.353Z,1.30
2022-09-28T02:29:01.025Z,0.88
2022-09-28T02:31:28.733Z,0.93
2022-09-28T02:33:58.070Z,0.75
2022-09-28T02:36:27.910Z,0.40
2022-09-28T02:38:57.791Z,0.20
2022-09-28T02:41:59.625Z,0.60
2022-09-28T02:45:10.616Z,0.20
2022-09-28T02:48:44.232Z,0.63
2022-09-28T02:51:45.209Z,0.22
2022-09-28T02:54:57.309Z,0.32
2022-09-28T02:57:43.159Z,0.30
2022-09-28T03:00:18.751Z,0.20
2022-09-28T03:03:33.376Z,0.40
2022-09-28T03:06:12.694Z,0.43
2022-09-28T03:09:13.729Z,0.40
2022-09-28T03:11:48.069Z,0.45
2022-09-28T03:14:16.063Z,0.65
2022-09-28T03:16:50.536Z,0.50
2022-09-28T03:19:23.563Z,0.40
2022-09-28T03:21:52.062Z,0.35
2022-09-28T03:24:19.446Z,0.40
2022-09-28T03:26:46.999Z,0.38
2022-09-28T03:29:15.093Z,3.78
2022-09-28T03:31:45.437Z,3.08
2022-09-28T03:34:12.821Z,2.78
2022-09-28T03:36:40.215Z,2.17
2022-09-28T03:39:07.573Z,1.98
2022-09-28T03:41:34.942Z,1.90
2022-09-28T03:44:02.735Z,1.40
2022-09-28T03:46:31.987Z,1.30
2022-09-28T03:49:05.351Z,0.77
2022-09-28T03:51:32.712Z,1.30
2022-09-28T03:54:00.116Z,0.88
2022-09-28T03:56:27.499Z,1.13
2022-09-28T03:58:54.922Z,1.42
2022-09-28T04:01:22.331Z,1.25
2022-09-28T04:03:57.148Z,1.30
2022-09-28T04:06:25.736Z,0.90
2022-09-28T04:08:53.186Z,0.98
2022-09-28T04:11:20.700Z,0.80
2022-09-28T04:13:49.928Z,0.70
2022-09-28T04:16:18.657Z,0.70
2022-09-28T04:18:55.592Z,0.50
2022-09-28T04:21:47.700Z,0.70
2022-09-28T04:24:15.585Z,0.45
2022-09-28T04:26:43.140Z,0.32
2022-09-28T04:29:18.317Z,0.43
2022-09-28T04:31:53.851Z,0.50
2022-09-28T04:34:25.888Z,0.50
2022-09-28T04:36:53.252Z,0.45
2022-09-28T04:39:21.704Z,0.35
2022-09-28T04:41:52.526Z,1.10
2022-09-28T04:44:20.126Z,0.40
2022-09-28T04:46:49.193Z,0.70
2022-09-28T04:49:39.776Z,0.60
2022-09-28T04:52:18.205Z,0.52
2022-09-28T04:54:47.827Z,0.32
2022-09-28T04:57:15.148Z,0.80
2022-09-28T04:59:42.889Z,0.40
2022-09-28T05:02:10.321Z,0.38
2022-09-28T05:04:56.617Z,0.30
2022-09-28T05:07:46.061Z,0.50
2022-09-28T05:10:13.873Z,1.13
2022-09-28T05:12:41.538Z,0.65
2022-09-28T05:15:10.668Z,0.75
2022-09-28T05:17:37.999Z,0.52
2022-09-28T05:20:21.387Z,0.95
2022-09-28T05:22:49.328Z,1.05
2022-09-28T05:25:17.714Z,0.32
2022-09-28T05:27:57.239Z,0.80
2022-09-28T05:31:01.875Z,0.73
2022-09-28T05:33:49.484Z,0.90
2022-09-28T05:36:16.850Z,1.00
2022-09-28T05:38:44.260Z,0.85
2022-09-28T05:41:12.384Z,1.35
2022-09-28T05:43:39.976Z,1.58
2022-09-28T05:46:07.461Z,1.48
2022-09-28T05:48:38.021Z,1.15
2022-09-28T05:51:05.434Z,1.60
2022-09-28T05:53:32.833Z,1.08
2022-09-28T05:56:00.564Z,0.80
2022-09-28T05:58:30.328Z,1.20
2022-09-28T06:00:59.503Z,1.10
2022-09-28T06:03:27.222Z,1.30
2022-09-28T06:05:55.234Z,1.13
2022-09-28T06:08:24.218Z,1.23
2022-09-28T06:11:01.978Z,1.40
2022-09-28T06:13:29.510Z,1.25
2022-09-28T06:15:57.201Z,1.05
2022-09-28T06:18:24.963Z,1.35
2022-09-28T06:21:21.854Z,1.42
2022-09-28T06:23:50.805Z,1.10
2022-09-28T06:26:19.214Z,1.80
2022-09-28T06:28:47.234Z,1.38
2022-09-28T06:31:15.819Z,1.73
2022-09-28T06:33:50.493Z,1.95
2022-09-28T06:36:19.656Z,1.45
2022-09-28T06:38:47.370Z,1.70
2022-09-28T06:41:15.808Z,2.17
2022-09-28T06:43:46.228Z,2.55
2022-09-28T06:46:22.271Z,2.33
2022-09-28T06:49:09.570Z,2.78
2022-09-28T06:51:55.720Z,2.10
2022-09-28T06:54:35.513Z,2.42
2022-09-28T06:57:09.818Z,2.58
2022-09-28T06:59:37.302Z,2.92
2022-09-28T07:02:05.283Z,2.40
2022-09-28T07:04:51.269Z,2.25
2022-09-28T07:07:37.097Z,2.60
2022-09-28T07:10:17.238Z,2.63
2022-09-28T07:13:04.900Z,2.60
2022-09-28T07:18:14.267Z,2.13
2022-09-28T07:20:52.564Z,2.38
2022-09-28T07:23:21.761Z,2.85
2022-09-28T07:26:22.737Z,2.63
2022-09-28T07:29:05.695Z,2.97
2022-09-28T07:31:55.994Z,2.72
2022-09-28T07:34:29.487Z,3.35
2022-09-28T07:37:19.007Z,2.97
2022-09-28T07:40:06.577Z,2.35
2022-09-28T07:42:38.504Z,2.53
2022-09-28T07:45:07.364Z,2.45
2022-09-28T07:47:35.408Z,3.03
2022-09-28T07:50:21.830Z,1.92
2022-09-28T07:53:10.366Z,2.92
2022-09-28T07:56:09.534Z,2.55
2022-09-28T07:58:52.377Z,2.30
2022-09-28T08:01:40.219Z,2.47
2022-09-28T08:04:10.578Z,2.55
2022-09-28T08:06:40.653Z,2.72
2022-09-28T08:09:10.623Z,2.63
2022-09-28T08:11:59.663Z,3.05
2022-09-28T08:14:52.359Z,2.78
2022-09-28T08:17:38.864Z,2.28
2022-09-28T08:20:28.153Z,2.35
2022-09-28T08:22:56.977Z,3.53
2022-09-28T08:25:25.037Z,2.20
2022-09-28T08:27:52.912Z,2.10
2022-09-28T08:30:21.362Z,2.33
2022-09-28T08:32:59.550Z,2.83
2022-09-28T08:36:07.003Z,2.28
2022-09-28T08:39:03.681Z,2.72
2022-09-28T08:42:39.706Z,2.83
2022-09-28T08:45:27.702Z,2.50
2022-09-28T08:48:52.249Z,2.03
2022-09-28T08:58:15.173Z,1.05
2022-09-28T09:00:48.634Z,1.20
2022-09-28T09:03:32.366Z,1.10
2022-09-28T09:06:53.357Z,0.80
2022-09-28T09:10:44.640Z,1.08
2022-09-28T09:13:24.958Z,0.73
2022-09-28T09:16:39.440Z,1.00
2022-09-28T09:19:41.164Z,0.57
2022-09-28T09:22:41.000Z,0.40
2022-09-28T09:25:45.415Z,0.30
2022-09-28T09:29:01.840Z,0.45
2022-09-28T09:32:11.763Z,0.40
2022-09-28T09:34:57.415Z,0.30
2022-09-28T09:38:19.413Z,0.47
2022-09-28T09:41:32.765Z,0.40
2022-09-28T09:48:00.385Z,0.70
2022-09-28T09:50:40.687Z,0.40
2022-09-28T09:53:17.074Z,0.70
2022-09-28T09:55:48.051Z,0.60
2022-09-28T09:58:41.338Z,0.60
2022-09-28T10:01:32.374Z,0.57
2022-09-28T10:04:46.355Z,0.65
2022-09-28T10:07:25.859Z,0.40
2022-09-28T10:09:58.253Z,0.35
2022-09-28T10:12:45.201Z,0.30
2022-09-28T10:15:19.106Z,0.60
2022-09-28T10:18:10.887Z,0.35
2022-09-28T10:20:57.165Z,0.90
2022-09-28T10:23:44.742Z,0.40
2022-09-28T10:26:25.072Z,0.32
2022-09-28T10:29:02.112Z,0.30
2022-09-28T10:31:50.056Z,0.28
2022-09-28T10:34:36.548Z,0.30
2022-09-28T10:40:40.842Z,0.20
2022-09-28T10:43:27.650Z,0.30
2022-09-28T10:46:10.464Z,0.60
2022-09-28T10:48:58.522Z,0.30
2022-09-28T10:51:56.630Z,0.47
2022-09-28T10:54:32.275Z,0.32
2022-09-28T10:57:01.187Z,0.30
2022-09-28T10:59:41.788Z,0.20
2022-09-28T11:02:40.466Z,0.20
2022-09-28T11:05:27.842Z,6.18
2022-09-28T11:08:00.142Z,4.93
2022-09-28T11:10:34.619Z,3.38
2022-09-28T11:13:19.998Z,1.05
2022-09-28T11:15:59.446Z,0.90
2022-09-28T11:18:34.428Z,0.25
2022-09-28T11:21:34.487Z,0.45
2022-09-28T11:24:21.841Z,0.30
2022-09-28T11:26:56.617Z,0.98
2022-09-28T11:29:41.695Z,0.40
2022-09-28T11:32:45.692Z,0.30
2022-09-28T11:36:00.186Z,0.80
2022-09-28T11:39:19.291Z,1.05
2022-09-28T11:42:37.387Z,0.60
2022-09-28T11:45:32.301Z,1.13
2022-09-28T11:48:05.752Z,0.80
2022-09-28T11:50:43.262Z,0.68
2022-09-28T11:53:36.856Z,0.50
2022-09-28T11:56:43.783Z,0.30
2022-09-28T11:59:38.031Z,0.57
2022-09-28T12:02:27.479Z,0.55
2022-09-28T12:05:27.641Z,0.30
2022-09-28T12:08:35.255Z,0.30
2022-09-28T12:11:36.016Z,0.45
2022-09-28T12:14:25.050Z,0.60
2022-09-28T12:17:07.933Z,0.55
2022-09-28T12:20:02.007Z,0.52
2022-09-28T12:22:38.157Z,1.52
2022-09-28T12:25:14.204Z,0.55
2022-09-28T12:27:48.691Z,0.40
2022-09-28T12:30:19.982Z,0.20
2022-09-28T12:33:18.724Z,0.50
2022-09-28T12:36:32.568Z,0.70
2022-09-28T12:39:53.939Z,0.40
2022-09-28T12:43:01.269Z,0.80
2022-09-28T12:46:17.973Z,0.93
2022-09-28T12:50:20.459Z,0.70
2022-09-28T12:52:59.381Z,0.40
2022-09-28T12:56:06.285Z,0.30
2022-09-28T12:59:11.574Z,0.40
2022-09-28T13:06:05.523Z,0.32
2022-09-28T13:08:47.404Z,0.28
2022-09-28T13:11:36.087Z,0.30
2022-09-28T13:14:22.031Z,0.10
2022-09-28T13:17:03.772Z,0.20
2022-09-28T13:19:50.793Z,0.25
2022-09-28T13:22:44.319Z,0.30
2022-09-28T13:25:19.138Z,0.10
2022-09-28T13:28:01.067Z,0.28
2022-09-28T13:30:29.394Z,0.28
2022-09-28T13:33:01.113Z,0.20
2022-09-28T13:35:28.912Z,0.70
2022-09-28T13:38:33.270Z,0.32
2022-09-28T13:41:12.553Z,0.32
2022-09-28T13:44:23.851Z,0.50
2022-09-28T13:47:22.046Z,0.35
2022-09-28T13:50:30.312Z,0.30
2022-09-28T13:53:16.705Z,0.10
2022-09-28T13:56:05.556Z,0.30
2022-09-28T13:58:41.365Z,0.10
2022-09-28T14:01:19.096Z,0.20
2022-09-28T14:04:23.426Z,0.20
2022-09-28T14:07:08.678Z,0.20
2022-09-28T14:09:47.878Z,0.20
2022-09-28T14:12:50.309Z,0.20
2022-09-28T14:15:49.936Z,0.30
2022-09-28T14:18:29.844Z,0.20
2022-09-28T14:21:58.620Z,0.20
2022-09-28T14:25:27.016Z,0.20
2022-09-28T14:28:29.378Z,0.20
2022-09-28T14:30:58.217Z,0.20
2022-09-28T14:33:30.276Z,0.22
2022-09-28T14:36:04.811Z,0.28
2022-09-28T14:39:04.324Z,0.10
2022-09-28T14:41:39.014Z,0.15
2022-09-28T14:44:13.652Z,0.20
2022-09-28T14:46:45.747Z,0.30
2022-09-28T14:52:12.437Z,0.20
2022-09-28T14:54:49.216Z,0.20
2022-09-28T14:57:20.882Z,0.10
2022-09-28T14:59:48.377Z,0.10
2022-09-28T15:02:22.347Z,0.22
2022-09-28T15:05:17.047Z,0.30
2022-09-28T15:07:51.984Z,0.10
2022-09-28T15:10:28.233Z,0.20
2022-09-28T15:12:57.278Z,0.20
2022-09-28T15:15:30.612Z,0.10
2022-09-28T15:18:21.327Z,0.15
2022-09-28T15:20:50.028Z,0.10
2022-09-28T15:23:37.195Z,0.00
2022-09-28T15:26:09.634Z,0.20
2022-09-28T15:28:43.886Z,0.20
2022-09-28T15:31:19.754Z,0.10
2022-09-28T15:34:06.020Z,0.20
2022-09-28T15:36:40.689Z,0.17
2022-09-28T15:39:37.365Z,0.13
2022-09-28T15:42:06.621Z,0.52
2022-09-28T15:44:45.819Z,0.17
2022-09-28T15:47:24.943Z,0.15
2022-09-28T15:50:02.827Z,0.30
2022-09-28T15:52:40.700Z,0.10
2022-09-28T15:55:49.817Z,0.30
2022-09-28T15:58:20.457Z,0.17
2022-09-28T16:00:50.111Z,0.20
2022-09-28T16:03:23.940Z,0.30
2022-09-28T16:06:09.561Z,0.32
2022-09-28T16:08:42.952Z,0.15
2022-09-28T16:11:30.269Z,0.50
2022-09-28T16:14:19.699Z,0.32
2022-09-28T16:16:49.627Z,0.40
2022-09-28T16:19:30.291Z,0.30
2022-09-28T16:22:04.235Z,0.38
2022-09-28T16:24:34.187Z,0.60
2022-09-28T16:27:29.913Z,0.30
2022-09-28T16:30:25.005Z,0.20
2022-09-28T16:33:01.792Z,0.40
2022-09-28T16:36:02.315Z,0.30
2022-09-28T16:38:29.784Z,0.73
2022-09-28T16:41:01.375Z,0.32
2022-09-28T16:43:31.055Z,0.28
2022-09-28T16:46:16.104Z,0.20
2022-09-28T16:48:48.977Z,0.40
2022-09-28T16:51:21.023Z,0.30
2022-09-28T16:54:06.991Z,0.20
2022-09-28T16:56:36.143Z,0.40
2022-09-28T16:59:04.557Z,0.22
2022-09-28T17:01:32.133Z,0.40
2022-09-28T17:03:59.764Z,0.40
2022-09-28T17:06:27.465Z,0.40
2022-09-28T17:08:56.740Z,0.32
2022-09-28T17:11:25.247Z,0.95
2022-09-28T17:13:59.089Z,0.50
2022-09-28T17:16:50.961Z,0.50
2022-09-28T17:19:25.125Z,0.60
2022-09-28T17:21:52.725Z,0.30
2022-09-28T17:24:20.854Z,0.50
2022-09-28T17:26:51.137Z,0.38
2022-09-28T17:29:19.192Z,0.68
2022-09-28T17:31:47.265Z,0.50
2022-09-28T17:34:19.943Z,0.30
2022-09-28T17:36:47.777Z,0.40
2022-09-28T17:39:19.223Z,0.30
2022-09-28T17:41:46.678Z,0.73
2022-09-28T17:44:16.385Z,0.38
2022-09-28T17:46:48.566Z,0.57
2022-09-28T17:51:44.008Z,0.50
2022-09-28T17:54:13.063Z,0.80
2022-09-28T17:56:42.450Z,1.33
2022-09-28T17:59:14.490Z,1.17
2022-09-28T18:01:42.013Z,0.82
2022-09-28T18:04:22.979Z,1.27
2022-09-28T18:06:55.299Z,1.33
2022-09-28T18:09:25.317Z,0.80
2022-09-28T18:12:00.548Z,2.58
2022-09-28T18:14:28.627Z,4.38
2022-09-28T18:16:56.734Z,4.97
2022-09-28T18:19:27.506Z,4.45
2022-09-28T18:21:58.714Z,3.97
2022-09-28T18:24:26.243Z,3.65
2022-09-28T18:26:53.712Z,3.65
2022-09-28T18:29:21.239Z,3.80
2022-09-28T18:31:48.864Z,3.25
2022-09-28T18:34:16.398Z,3.95
2022-09-28T18:36:43.894Z,3.03
2022-09-28T18:39:11.696Z,2.35
2022-09-28T18:41:39.266Z,2.55
2022-09-28T18:44:06.814Z,3.50
2022-09-28T18:46:36.747Z,2.72
2022-09-28T18:49:05.251Z,2.97
2022-09-28T18:51:32.745Z,3.08
2022-09-28T18:54:06.702Z,2.85
2022-09-28T18:56:37.232Z,2.25
2022-09-28T18:59:11.133Z,1.98
2022-09-28T19:01:41.742Z,3.00
2022-09-28T19:04:11.003Z,3.00
2022-09-28T19:06:41.690Z,3.25
2022-09-28T19:09:09.402Z,3.75
2022-09-28T19:11:36.762Z,2.95
2022-09-28T19:14:04.099Z,3.67
2022-09-28T19:16:34.093Z,5.00
2022-09-28T19:19:02.794Z,4.07
2022-09-28T19:21:30.569Z,3.22
2022-09-28T19:24:01.285Z,3.55
2022-09-28T19:26:29.472Z,4.00
2022-09-28T19:28:58.069Z,3.72
2022-09-28T19:31:26.937Z,3.08
2022-09-28T19:33:54.338Z,3.28
2022-09-28T19:36:23.998Z,3.17
2022-09-28T19:38:53.070Z,3.55
2022-09-28T19:41:43.699Z,2.92
2022-09-28T19:44:33.129Z,4.10
2022-09-28T19:47:06.806Z,2.97
2022-09-28T19:49:53.225Z,3.90
2022-09-28T19:52:20.575Z,4.15
2022-09-28T19:54:56.456Z,3.67
2022-09-28T19:57:26.163Z,3.67
2022-09-28T19:59:57.843Z,3.28
2022-09-28T20:02:28.546Z,2.65
2022-09-28T20:04:56.248Z,3.88
2022-09-28T20:07:23.591Z,3.33
2022-09-28T20:09:51.712Z,2.42
2022-09-28T20:12:19.234Z,2.88
2022-09-28T20:14:46.605Z,2.97
2022-09-28T20:17:14.037Z,2.58
2022-09-28T20:19:41.369Z,2.83
2022-09-28T20:22:08.776Z,2.15
2022-09-28T20:24:36.076Z,2.45
2022-09-28T20:27:03.446Z,2.47
2022-09-28T20:29:33.765Z,1.77
2022-09-28T20:32:02.103Z,2.35
2022-09-28T20:34:29.650Z,2.63
2022-09-28T20:36:57.015Z,2.17
2022-09-28T20:39:24.395Z,2.00
2022-09-28T20:41:51.768Z,2.15
2022-09-28T20:44:19.279Z,2.10
2022-09-28T20:46:50.451Z,2.28
2022-09-28T20:49:17.766Z,2.00
2022-09-28T20:51:45.219Z,2.42
2022-09-28T20:54:12.618Z,1.83
2022-09-28T20:56:40.058Z,1.85
2022-09-28T20:59:10.241Z,2.30
2022-09-28T21:01:37.918Z,2.05
2022-09-28T21:04:07.233Z,1.98
2022-09-28T21:06:39.721Z,2.05
2022-09-28T21:09:08.844Z,1.98
2022-09-28T21:11:36.848Z,1.98
2022-09-28T21:14:06.565Z,2.28
2022-09-28T21:16:34.895Z,1.92
2022-09-28T21:19:02.799Z,2.00
2022-09-28T21:21:30.239Z,1.42
2022-09-28T21:23:58.269Z,2.10
2022-09-28T21:26:31.368Z,1.70
2022-09-28T21:29:01.461Z,1.83
2022-09-28T21:31:37.575Z,1.63
2022-09-28T21:34:05.031Z,1.47
2022-09-28T21:36:32.774Z,1.90
2022-09-28T21:39:00.126Z,2.00
2022-09-28T21:41:28.797Z,1.90
2022-09-28T21:43:56.193Z,1.70
2022-09-28T21:46:24.025Z,1.70
2022-09-28T21:48:53.520Z,2.07
2022-09-28T21:51:21.630Z,1.67
2022-09-28T21:53:49.461Z,2.70
2022-09-28T21:56:16.813Z,2.10
2022-09-28T21:58:44.155Z,2.20
2022-09-28T22:01:22.917Z,1.67
2022-09-28T22:03:54.582Z,1.03
2022-09-28T22:06:24.320Z,1.52
2022-09-28T22:08:51.654Z,2.00
2022-09-28T22:11:21.657Z,1.40
2022-09-28T22:13:54.838Z,1.83
2022-09-28T22:16:24.378Z,1.47
2022-09-28T22:18:52.060Z,2.40
2022-09-28T22:21:22.008Z,1.83
2022-09-28T22:23:49.981Z,1.70
2022-09-28T22:26:20.663Z,1.60
2022-09-28T22:28:53.418Z,1.60
2022-09-28T22:31:23.370Z,1.60
2022-09-28T22:33:50.978Z,1.50
2022-09-28T22:36:19.966Z,2.07
2022-09-28T22:38:47.995Z,1.97
2022-09-28T22:41:17.012Z,1.60
2022-09-28T22:43:44.600Z,1.87
2022-09-28T22:46:17.634Z,1.87
2022-09-28T22:48:49.680Z,1.53
2022-09-28T22:51:17.617Z,2.13
2022-09-28T22:53:45.441Z,1.40
2022-09-28T22:56:17.630Z,1.80
2022-09-28T22:58:46.821Z,1.67
2022-09-28T23:01:20.918Z,2.23
2022-09-28T23:03:49.786Z,1.73
2022-09-28T23:06:19.405Z,1.77
2022-09-28T23:08:47.448Z,1.87
2022-09-28T23:11:15.902Z,2.17
2022-09-28T23:13:43.511Z,1.53
2022-09-28T23:16:12.714Z,1.80
2022-09-28T23:18:41.248Z,1.60
2022-09-28T23:21:12.460Z,1.53
2022-09-28T23:23:39.837Z,1.83
2022-09-28T23:26:18.694Z,1.37
2022-09-28T23:28:46.085Z,2.00
2022-09-28T23:31:23.173Z,2.03
2022-09-28T23:33:52.091Z,1.53
2022-09-28T23:36:19.420Z,1.73
2022-09-28T23:38:46.796Z,1.60
2022-09-28T23:41:14.127Z,1.97
2022-09-28T23:43:41.487Z,1.37
2022-09-28T23:46:08.856Z,1.50
2022-09-28T23:48:36.223Z,1.90
2022-09-28T23:51:04.011Z,1.80
2022-09-28T23:53:32.495Z,1.60
2022-09-28T23:56:00.009Z,2.10
2022-09-28T23:58:27.680Z,1.80
